Pagrindinis puslapis
METAR-TAF:

METAR-TAF

Oro uostai :

Morrisville-Stowe State Airport

Morrisville, Vermontas, Jungtinės Amerikos Valstijos

platuma: 44-32-10N, ilguma: 072-36-58W, Aukštis: 223 m

Dabartinis oras

Ataskaita buvo paskelbta 14 minutes, ne 06:54 UTC
Vėjas 9 kt iš Pietų/Pietvakarių su gūsio iki 15 kt
Temperatūra -6°C
Drėgmė 79%
Slėgis 998 hPa
Matomumas: 16.1 km
Apsiniaukę ne aukštis 3500 ft

METAR: KMVL 280654Z AUTO 20009G15KT 10SM OVC035 M06/M09 A2946 RMK AO2 SNB05E38 SLP986 P0000 T10561094

Laikas: 02:08 (07:08 UTC)


TAF: trūkstamas

Orai ataskaitas ir orų prognozės (METAR, TAF).

turimą stotys yra geltonos ir raudonos taškus žemėlapyje.

Perkelti pele per norėdami pamatyti stoties vardą.

Tada spustelėkite, norėdami matyti oro stebėjimo ir prognozės.

Norėdami pakeisti žemėlapį: spustelėkite ant žalios mygtukų su juodo kryžiaus žemyn,; žalią mygtuką su brūkšneliu, jei norite nutolinti; arba žalių rodyklių gretimoms žemėlapius.


METAR-TAF: